WZZ993 LHBP-LCLK
Flight info
| Callsign | WZZ993 |
|---|---|
| Flight time | 2h 20m |
| Altitude | 33000 |
| Route | GAZDA DCT MAVIR DCT INVED DCT TIMUR L606 ADORU UG80 EKI UW81 YAYLA UL854 KULAR UT39 TOMBI M855 DASNI M601 BONEK |
| Aircraft | A21N/M-SDE2E3FGHIRWXY/LB1 |
Departure
| Time | 2026-05-07 15:25 |
|---|---|
| Airport | Budapest Liszt Ferenc International Airport (LHBP) |
Arrival
| Time | 2026-05-07 17:46 |
|---|---|
| Airport | Larnaca International Airport (LCLK) |
| Time | Latitude | Longitude | Altitude | Speed | Heading |
|---|---|---|---|---|---|
| 2026-05-07 14:58 | 47.43356 | 19.26713 | 463 ft | 0 kts | 222° |
| 2026-05-07 15:18 | 47.43349 | 19.26703 | 461 ft | 4 kts | 222° |
| 2026-05-07 15:18 | 47.43322 | 19.26677 | 463 ft | 6 kts | 191° |
| 2026-05-07 15:19 | 47.43280 | 19.26708 | 463 ft | 8 kts | 135° |
| 2026-05-07 15:19 | 47.43248 | 19.26782 | 463 ft | 9 kts | 97° |
| 2026-05-07 15:19 | 47.43265 | 19.26881 | 463 ft | 11 kts | 68° |
| 2026-05-07 15:19 | 47.43296 | 19.26988 | 463 ft | 12 kts | 66° |
| 2026-05-07 15:20 | 47.43349 | 19.27082 | 463 ft | 13 kts | 7° |
| 2026-05-07 15:20 | 47.43422 | 19.27010 | 463 ft | 14 kts | 313° |
| 2026-05-07 15:20 | 47.43489 | 19.26901 | 463 ft | 15 kts | 312° |
| 2026-05-07 15:20 | 47.43564 | 19.26779 | 463 ft | 17 kts | 313° |
| 2026-05-07 15:21 | 47.43650 | 19.26641 | 463 ft | 19 kts | 311° |
| 2026-05-07 15:21 | 47.43745 | 19.26486 | 462 ft | 22 kts | 313° |
| 2026-05-07 15:21 | 47.43847 | 19.26322 | 463 ft | 19 kts | 313° |
| 2026-05-07 15:21 | 47.43914 | 19.26197 | 462 ft | 13 kts | 279° |
| 2026-05-07 15:22 | 47.43863 | 19.26083 | 463 ft | 15 kts | 222° |
| 2026-05-07 15:22 | 47.43774 | 19.25966 | 463 ft | 19 kts | 221° |
| 2026-05-07 15:22 | 47.43673 | 19.25832 | 463 ft | 20 kts | 222° |
| 2026-05-07 15:22 | 47.43569 | 19.25688 | 461 ft | 21 kts | 222° |
| 2026-05-07 15:23 | 47.43460 | 19.25543 | 463 ft | 22 kts | 222° |
| 2026-05-07 15:23 | 47.43385 | 19.25444 | 463 ft | 22 kts | 222° |
| 2026-05-07 15:23 | 47.43270 | 19.25288 | 460 ft | 23 kts | 222° |
| 2026-05-07 15:23 | 47.43150 | 19.25127 | 462 ft | 23 kts | 222° |
| 2026-05-07 15:24 | 47.43078 | 19.25025 | 463 ft | 11 kts | 243° |
| 2026-05-07 15:24 | 47.43108 | 19.24927 | 463 ft | 12 kts | 310° |
| 2026-05-07 15:24 | 47.43184 | 19.24803 | 462 ft | 31 kts | 313° |
| 2026-05-07 15:24 | 47.43504 | 19.24288 | 457 ft | 104 kts | 312° |
| 2026-05-07 15:25 | 47.44138 | 19.23263 | 460 ft | 162 kts | 312° |
| 2026-05-07 15:25 | 47.44932 | 19.21997 | 943 ft | 165 kts | 310° |
| 2026-05-07 15:25 | 47.45713 | 19.20737 | 1587 ft | 168 kts | 309° |
| 2026-05-07 15:25 | 47.46508 | 19.19447 | 2159 ft | 172 kts | 309° |
| 2026-05-07 15:26 | 47.47333 | 19.18092 | 2604 ft | 183 kts | 309° |
| 2026-05-07 15:26 | 47.48215 | 19.16646 | 3029 ft | 197 kts | 308° |
| 2026-05-07 15:26 | 47.48834 | 19.14842 | 3425 ft | 206 kts | 279° |
| 2026-05-07 15:26 | 47.48751 | 19.12696 | 3818 ft | 220 kts | 252° |
| 2026-05-07 15:27 | 47.48211 | 19.10465 | 4149 ft | 241 kts | 246° |
| 2026-05-07 15:27 | 47.47332 | 19.08260 | 4668 ft | 255 kts | 231° |
| 2026-05-07 15:27 | 47.45957 | 19.06592 | 5338 ft | 261 kts | 206° |
| 2026-05-07 15:27 | 47.44195 | 19.06013 | 6127 ft | 265 kts | 180° |
| 2026-05-07 15:28 | 47.42381 | 19.06599 | 6925 ft | 270 kts | 163° |
| 2026-05-07 15:28 | 47.40619 | 19.07612 | 7708 ft | 272 kts | 161° |
| 2026-05-07 15:28 | 47.38851 | 19.08640 | 8469 ft | 274 kts | 162° |
| 2026-05-07 15:28 | 47.37068 | 19.09649 | 9233 ft | 276 kts | 162° |
| 2026-05-07 15:29 | 47.35268 | 19.10643 | 9987 ft | 277 kts | 163° |
| 2026-05-07 15:29 | 47.33423 | 19.11648 | 10409 ft | 290 kts | 163° |
| 2026-05-07 15:29 | 47.31465 | 19.12705 | 10681 ft | 309 kts | 163° |
| 2026-05-07 15:29 | 47.29380 | 19.13826 | 10934 ft | 329 kts | 162° |
| 2026-05-07 15:30 | 47.27168 | 19.15015 | 11183 ft | 349 kts | 162° |
| 2026-05-07 15:30 | 47.24818 | 19.16272 | 11424 ft | 368 kts | 162° |
| 2026-05-07 15:30 | 47.22348 | 19.17586 | 11731 ft | 386 kts | 162° |
| 2026-05-07 15:30 | 47.19796 | 19.18944 | 12241 ft | 390 kts | 162° |
| 2026-05-07 15:31 | 47.17264 | 19.20293 | 12811 ft | 392 kts | 162° |
| 2026-05-07 15:31 | 47.14689 | 19.21663 | 13346 ft | 394 kts | 162° |
| 2026-05-07 15:31 | 47.12105 | 19.23037 | 13864 ft | 397 kts | 162° |
| 2026-05-07 15:31 | 47.09496 | 19.24421 | 14324 ft | 399 kts | 162° |
| 2026-05-07 15:32 | 47.06876 | 19.25808 | 14783 ft | 402 kts | 162° |
| 2026-05-07 15:32 | 47.04247 | 19.27199 | 15265 ft | 405 kts | 162° |
| 2026-05-07 15:32 | 47.01588 | 19.28605 | 15795 ft | 408 kts | 162° |
| 2026-05-07 15:32 | 46.98911 | 19.30019 | 16320 ft | 411 kts | 162° |
| 2026-05-07 15:33 | 46.96206 | 19.31448 | 16843 ft | 414 kts | 162° |
| 2026-05-07 15:33 | 46.93485 | 19.32881 | 17353 ft | 417 kts | 162° |
| 2026-05-07 15:33 | 46.90741 | 19.34324 | 17864 ft | 420 kts | 162° |
| 2026-05-07 15:33 | 46.88011 | 19.35761 | 18346 ft | 423 kts | 162° |
| 2026-05-07 15:34 | 46.85308 | 19.37651 | 18742 ft | 431 kts | 149° |
| 2026-05-07 15:34 | 46.83014 | 19.40532 | 19182 ft | 437 kts | 137° |
| 2026-05-07 15:34 | 46.80937 | 19.43727 | 19609 ft | 441 kts | 136° |
| 2026-05-07 15:34 | 46.78828 | 19.46997 | 20050 ft | 445 kts | 136° |
| 2026-05-07 15:35 | 46.76687 | 19.50268 | 20466 ft | 447 kts | 137° |
| 2026-05-07 15:35 | 46.74483 | 19.53591 | 20895 ft | 450 kts | 137° |
| 2026-05-07 15:35 | 46.72322 | 19.56830 | 21320 ft | 453 kts | 137° |
| 2026-05-07 15:35 | 46.70107 | 19.60146 | 21735 ft | 456 kts | 137° |
| 2026-05-07 15:36 | 46.67894 | 19.63451 | 22144 ft | 458 kts | 137° |
| 2026-05-07 15:36 | 46.65654 | 19.66792 | 22535 ft | 461 kts | 137° |
| 2026-05-07 15:36 | 46.63410 | 19.70138 | 22909 ft | 464 kts | 137° |
| 2026-05-07 15:36 | 46.61137 | 19.73517 | 23274 ft | 467 kts | 137° |
| 2026-05-07 15:37 | 46.58869 | 19.76887 | 23639 ft | 470 kts | 137° |
| 2026-05-07 15:37 | 46.56562 | 19.80312 | 23956 ft | 473 kts | 137° |
| 2026-05-07 15:37 | 46.54287 | 19.83686 | 24285 ft | 474 kts | 138° |
| 2026-05-07 15:37 | 46.51975 | 19.87110 | 24685 ft | 473 kts | 138° |
| 2026-05-07 15:38 | 46.49678 | 19.90505 | 25087 ft | 472 kts | 138° |
| 2026-05-07 15:38 | 46.47371 | 19.93910 | 25468 ft | 472 kts | 138° |
| 2026-05-07 15:38 | 46.45077 | 19.97295 | 25872 ft | 471 kts | 138° |
| 2026-05-07 15:38 | 46.42780 | 20.00676 | 26293 ft | 470 kts | 139° |
| 2026-05-07 15:39 | 46.40490 | 20.04046 | 26706 ft | 469 kts | 139° |
| 2026-05-07 15:39 | 46.38197 | 20.07413 | 27090 ft | 468 kts | 139° |
| 2026-05-07 15:39 | 46.35910 | 20.10767 | 27466 ft | 467 kts | 139° |
| 2026-05-07 15:39 | 46.33630 | 20.14109 | 27852 ft | 467 kts | 139° |
| 2026-05-07 15:40 | 46.31351 | 20.17444 | 28227 ft | 466 kts | 139° |
| 2026-05-07 15:40 | 46.29071 | 20.20776 | 28597 ft | 465 kts | 139° |
| 2026-05-07 15:40 | 46.26793 | 20.24099 | 28966 ft | 464 kts | 139° |
| 2026-05-07 15:40 | 46.24527 | 20.27405 | 29318 ft | 463 kts | 139° |
| 2026-05-07 15:41 | 46.22257 | 20.30713 | 29678 ft | 463 kts | 139° |
| 2026-05-07 15:41 | 46.19996 | 20.34001 | 30010 ft | 462 kts | 140° |
| 2026-05-07 15:41 | 46.17724 | 20.37299 | 30324 ft | 461 kts | 140° |
| 2026-05-07 15:41 | 46.15519 | 20.40578 | 30606 ft | 462 kts | 137° |
| 2026-05-07 15:42 | 46.13401 | 20.44061 | 30896 ft | 462 kts | 136° |
| 2026-05-07 15:42 | 46.11305 | 20.47551 | 31183 ft | 460 kts | 135° |
| 2026-05-07 15:42 | 46.09185 | 20.51080 | 31463 ft | 459 kts | 135° |
| 2026-05-07 15:42 | 46.07121 | 20.54513 | 31739 ft | 458 kts | 136° |
| 2026-05-07 15:43 | 46.05036 | 20.57974 | 32027 ft | 456 kts | 136° |
| 2026-05-07 15:43 | 46.02958 | 20.61417 | 32305 ft | 455 kts | 136° |
| 2026-05-07 15:43 | 46.00881 | 20.64850 | 32531 ft | 454 kts | 136° |
| 2026-05-07 15:43 | 45.98802 | 20.68284 | 32785 ft | 453 kts | 136° |
| 2026-05-07 15:44 | 45.96733 | 20.71694 | 33010 ft | 453 kts | 136° |
| 2026-05-07 15:44 | 45.94664 | 20.75103 | 33057 ft | 452 kts | 136° |
| 2026-05-07 15:44 | 45.90529 | 20.81901 | 33022 ft | 451 kts | 136° |
| 2026-05-07 15:45 | 45.86393 | 20.88681 | 33014 ft | 451 kts | 136° |
| 2026-05-07 15:45 | 45.82254 | 20.95451 | 33011 ft | 451 kts | 136° |
| 2026-05-07 15:46 | 45.76042 | 21.05587 | 33015 ft | 451 kts | 136° |
| 2026-05-07 15:47 | 45.71905 | 21.12315 | 33016 ft | 450 kts | 136° |
| 2026-05-07 15:47 | 45.67776 | 21.19017 | 33020 ft | 449 kts | 136° |
| 2026-05-07 15:48 | 45.63641 | 21.25711 | 33021 ft | 448 kts | 136° |
| 2026-05-07 15:48 | 45.59508 | 21.32381 | 33021 ft | 448 kts | 136° |
| 2026-05-07 15:49 | 45.55403 | 21.38990 | 33016 ft | 448 kts | 136° |
| 2026-05-07 15:49 | 45.51257 | 21.45652 | 33015 ft | 448 kts | 136° |
| 2026-05-07 15:50 | 45.47114 | 21.52286 | 33020 ft | 448 kts | 136° |
| 2026-05-07 15:50 | 45.42966 | 21.58915 | 33025 ft | 448 kts | 136° |
| 2026-05-07 15:51 | 45.38827 | 21.65519 | 33024 ft | 448 kts | 136° |
| 2026-05-07 15:51 | 45.34679 | 21.72123 | 33031 ft | 448 kts | 136° |
| 2026-05-07 15:52 | 45.30509 | 21.78745 | 33040 ft | 449 kts | 136° |
| 2026-05-07 15:52 | 45.26338 | 21.85354 | 33043 ft | 449 kts | 136° |
| 2026-05-07 15:53 | 45.22157 | 21.91957 | 33044 ft | 450 kts | 136° |
| 2026-05-07 15:53 | 45.17972 | 21.98553 | 33067 ft | 450 kts | 136° |
| 2026-05-07 15:54 | 45.13769 | 22.05159 | 33054 ft | 450 kts | 136° |
| 2026-05-07 15:54 | 45.09599 | 22.11701 | 33050 ft | 451 kts | 136° |
| 2026-05-07 15:55 | 45.05385 | 22.18299 | 33060 ft | 451 kts | 136° |
| 2026-05-07 15:55 | 45.01171 | 22.24876 | 33070 ft | 451 kts | 136° |
| 2026-05-07 15:56 | 44.96953 | 22.31451 | 33073 ft | 451 kts | 137° |
| 2026-05-07 15:56 | 44.92740 | 22.38001 | 33066 ft | 451 kts | 137° |
| 2026-05-07 15:57 | 44.88510 | 22.44557 | 33075 ft | 451 kts | 137° |
| 2026-05-07 15:57 | 44.84278 | 22.51104 | 33073 ft | 451 kts | 137° |
| 2026-05-07 15:58 | 44.80043 | 22.57640 | 33076 ft | 451 kts | 137° |
| 2026-05-07 15:58 | 44.75804 | 22.64157 | 33071 ft | 451 kts | 137° |
| 2026-05-07 15:59 | 44.71598 | 22.70619 | 33069 ft | 451 kts | 137° |
| 2026-05-07 15:59 | 44.67357 | 22.77116 | 33059 ft | 451 kts | 137° |
| 2026-05-07 16:00 | 44.63108 | 22.83616 | 33068 ft | 451 kts | 137° |
| 2026-05-07 16:00 | 44.58852 | 22.90106 | 33061 ft | 453 kts | 137° |
| 2026-05-07 16:01 | 44.54584 | 22.96600 | 33068 ft | 453 kts | 137° |
| 2026-05-07 16:01 | 44.50314 | 23.03084 | 33066 ft | 453 kts | 136° |
| 2026-05-07 16:02 | 44.46020 | 23.09589 | 33064 ft | 455 kts | 136° |
| 2026-05-07 16:02 | 44.41715 | 23.16089 | 33063 ft | 456 kts | 136° |
| 2026-05-07 16:03 | 44.37404 | 23.22589 | 33062 ft | 456 kts | 136° |
| 2026-05-07 16:03 | 44.33105 | 23.29056 | 33061 ft | 457 kts | 136° |
| 2026-05-07 16:04 | 44.28782 | 23.35545 | 33060 ft | 457 kts | 136° |
| 2026-05-07 16:04 | 44.24444 | 23.42040 | 33054 ft | 458 kts | 136° |
| 2026-05-07 16:05 | 44.20096 | 23.48531 | 33050 ft | 458 kts | 136° |
| 2026-05-07 16:05 | 44.15735 | 23.55029 | 33054 ft | 459 kts | 136° |
| 2026-05-07 16:06 | 44.11367 | 23.61528 | 33049 ft | 459 kts | 136° |
| 2026-05-07 16:06 | 44.06989 | 23.68018 | 33052 ft | 460 kts | 136° |
| 2026-05-07 16:07 | 44.03347 | 23.73407 | 33052 ft | 460 kts | 136° |
| 2026-05-07 16:07 | 43.98955 | 23.79896 | 33053 ft | 461 kts | 136° |
| 2026-05-07 16:08 | 43.94554 | 23.86382 | 33050 ft | 462 kts | 136° |
| 2026-05-07 16:08 | 43.90152 | 23.92850 | 33067 ft | 462 kts | 136° |
| 2026-05-07 16:09 | 43.85727 | 23.99342 | 33052 ft | 463 kts | 136° |
| 2026-05-07 16:09 | 43.81306 | 24.05811 | 33058 ft | 464 kts | 136° |
| 2026-05-07 16:10 | 43.76853 | 24.12310 | 33056 ft | 464 kts | 136° |
| 2026-05-07 16:10 | 43.72425 | 24.18754 | 33051 ft | 465 kts | 136° |
| 2026-05-07 16:11 | 43.67922 | 24.25188 | 33060 ft | 466 kts | 138° |
| 2026-05-07 16:11 | 43.63249 | 24.31435 | 33057 ft | 466 kts | 138° |
| 2026-05-07 16:12 | 43.58613 | 24.37612 | 33057 ft | 466 kts | 138° |
| 2026-05-07 16:12 | 43.53941 | 24.43825 | 33053 ft | 466 kts | 139° |
| 2026-05-07 16:13 | 43.49265 | 24.50030 | 33056 ft | 467 kts | 139° |
| 2026-05-07 16:13 | 43.44576 | 24.56230 | 33057 ft | 467 kts | 139° |
| 2026-05-07 16:14 | 43.39905 | 24.62400 | 33058 ft | 467 kts | 139° |
| 2026-05-07 16:14 | 43.35219 | 24.68574 | 33054 ft | 467 kts | 139° |
| 2026-05-07 16:15 | 43.30493 | 24.74787 | 33054 ft | 467 kts | 139° |
| 2026-05-07 16:15 | 43.25814 | 24.80922 | 33057 ft | 468 kts | 139° |
| 2026-05-07 16:16 | 43.21100 | 24.87093 | 33052 ft | 469 kts | 139° |
| 2026-05-07 16:16 | 43.16369 | 24.93270 | 33061 ft | 470 kts | 139° |
| 2026-05-07 16:17 | 43.11625 | 24.99445 | 33056 ft | 471 kts | 139° |
| 2026-05-07 16:17 | 43.06874 | 25.05626 | 33054 ft | 472 kts | 139° |
| 2026-05-07 16:18 | 43.02103 | 25.11811 | 33060 ft | 473 kts | 139° |
| 2026-05-07 16:18 | 42.97322 | 25.17996 | 33063 ft | 474 kts | 138° |
| 2026-05-07 16:19 | 42.92523 | 25.24195 | 33060 ft | 475 kts | 138° |
| 2026-05-07 16:19 | 42.87726 | 25.30375 | 33062 ft | 475 kts | 138° |
| 2026-05-07 16:20 | 42.82933 | 25.36535 | 33058 ft | 476 kts | 138° |
| 2026-05-07 16:20 | 42.78103 | 25.42730 | 33052 ft | 477 kts | 138° |
| 2026-05-07 16:21 | 42.73260 | 25.48922 | 33049 ft | 478 kts | 138° |
| 2026-05-07 16:21 | 42.68402 | 25.55128 | 33055 ft | 479 kts | 138° |
| 2026-05-07 16:22 | 42.63537 | 25.61324 | 33053 ft | 480 kts | 138° |
| 2026-05-07 16:22 | 42.58660 | 25.67519 | 33050 ft | 481 kts | 138° |
| 2026-05-07 16:23 | 42.53759 | 25.73733 | 33051 ft | 482 kts | 138° |
| 2026-05-07 16:23 | 42.48880 | 25.79907 | 33043 ft | 482 kts | 137° |
| 2026-05-07 16:24 | 42.43969 | 25.86105 | 33028 ft | 483 kts | 138° |
| 2026-05-07 16:24 | 42.39044 | 25.92304 | 33034 ft | 484 kts | 137° |
| 2026-05-07 16:25 | 42.34112 | 25.98507 | 33025 ft | 484 kts | 137° |
| 2026-05-07 16:25 | 42.29167 | 26.04708 | 33035 ft | 485 kts | 138° |
| 2026-05-07 16:26 | 42.24211 | 26.10907 | 33042 ft | 485 kts | 137° |
| 2026-05-07 16:26 | 42.19258 | 26.17095 | 33039 ft | 486 kts | 137° |
| 2026-05-07 16:27 | 42.14292 | 26.23278 | 33046 ft | 486 kts | 137° |
| 2026-05-07 16:27 | 42.09304 | 26.29477 | 33043 ft | 487 kts | 137° |
| 2026-05-07 16:28 | 42.04314 | 26.35663 | 33046 ft | 488 kts | 138° |
| 2026-05-07 16:28 | 41.99350 | 26.41805 | 33045 ft | 488 kts | 137° |
| 2026-05-07 16:29 | 41.94338 | 26.47992 | 33054 ft | 489 kts | 137° |
| 2026-05-07 16:29 | 41.89323 | 26.54170 | 33051 ft | 489 kts | 137° |
| 2026-05-07 16:30 | 41.84034 | 26.59909 | 33050 ft | 489 kts | 146° |
| 2026-05-07 16:30 | 41.78434 | 26.65116 | 33061 ft | 490 kts | 146° |
| 2026-05-07 16:31 | 41.72851 | 26.70359 | 33061 ft | 490 kts | 146° |
| 2026-05-07 16:31 | 41.67303 | 26.75586 | 33067 ft | 491 kts | 146° |
| 2026-05-07 16:32 | 41.61711 | 26.80841 | 33068 ft | 491 kts | 146° |
| 2026-05-07 16:32 | 41.56109 | 26.86100 | 33073 ft | 492 kts | 146° |
| 2026-05-07 16:33 | 41.50508 | 26.91348 | 33077 ft | 493 kts | 146° |
| 2026-05-07 16:33 | 41.44882 | 26.96602 | 33082 ft | 493 kts | 146° |
| 2026-05-07 16:34 | 41.39254 | 27.01848 | 33085 ft | 494 kts | 146° |
| 2026-05-07 16:34 | 41.33612 | 27.07094 | 33092 ft | 495 kts | 146° |
| 2026-05-07 16:35 | 41.28001 | 27.12300 | 33094 ft | 495 kts | 146° |
| 2026-05-07 16:35 | 41.22352 | 27.17531 | 33101 ft | 496 kts | 146° |
| 2026-05-07 16:36 | 41.16674 | 27.22779 | 33102 ft | 496 kts | 146° |
| 2026-05-07 16:36 | 41.11003 | 27.28006 | 33105 ft | 497 kts | 146° |
| 2026-05-07 16:37 | 41.05309 | 27.33243 | 33111 ft | 497 kts | 146° |
| 2026-05-07 16:37 | 40.99618 | 27.38472 | 33107 ft | 498 kts | 146° |
| 2026-05-07 16:38 | 40.93754 | 27.43330 | 33108 ft | 497 kts | 157° |
| 2026-05-07 16:38 | 40.87378 | 27.46777 | 33119 ft | 497 kts | 160° |
| 2026-05-07 16:39 | 40.80929 | 27.50161 | 33115 ft | 498 kts | 160° |
| 2026-05-07 16:39 | 40.74541 | 27.53541 | 33121 ft | 498 kts | 159° |
| 2026-05-07 16:40 | 40.68060 | 27.56973 | 33113 ft | 499 kts | 159° |
| 2026-05-07 16:40 | 40.61610 | 27.60384 | 33112 ft | 499 kts | 159° |
| 2026-05-07 16:41 | 40.55207 | 27.63760 | 33118 ft | 499 kts | 159° |
| 2026-05-07 16:41 | 40.48754 | 27.67155 | 33121 ft | 500 kts | 159° |
| 2026-05-07 16:42 | 40.42286 | 27.70551 | 33118 ft | 500 kts | 159° |
| 2026-05-07 16:42 | 40.35809 | 27.73944 | 33109 ft | 501 kts | 159° |
| 2026-05-07 16:43 | 40.29335 | 27.77329 | 33117 ft | 501 kts | 160° |
| 2026-05-07 16:43 | 40.22856 | 27.80708 | 33114 ft | 501 kts | 160° |
| 2026-05-07 16:44 | 40.16386 | 27.84079 | 33118 ft | 501 kts | 160° |
| 2026-05-07 16:44 | 40.09908 | 27.87440 | 33110 ft | 501 kts | 160° |
| 2026-05-07 16:45 | 40.03423 | 27.90806 | 33126 ft | 500 kts | 160° |
| 2026-05-07 16:45 | 39.96989 | 27.94137 | 33109 ft | 500 kts | 160° |
| 2026-05-07 16:46 | 39.90517 | 27.97480 | 33113 ft | 500 kts | 160° |
| 2026-05-07 16:46 | 39.84051 | 28.00806 | 33119 ft | 500 kts | 160° |
| 2026-05-07 16:47 | 39.77558 | 28.04080 | 33121 ft | 500 kts | 160° |
| 2026-05-07 16:47 | 39.71070 | 28.07347 | 33108 ft | 501 kts | 160° |
| 2026-05-07 16:48 | 39.64571 | 28.10622 | 33111 ft | 501 kts | 160° |
| 2026-05-07 16:48 | 39.58054 | 28.13898 | 33118 ft | 501 kts | 160° |
| 2026-05-07 16:49 | 39.51539 | 28.17166 | 33123 ft | 502 kts | 160° |
| 2026-05-07 16:49 | 39.45025 | 28.20428 | 33129 ft | 502 kts | 160° |
| 2026-05-07 16:50 | 39.38497 | 28.23691 | 33136 ft | 503 kts | 160° |
| 2026-05-07 16:50 | 39.31960 | 28.26947 | 33144 ft | 503 kts | 160° |
| 2026-05-07 16:51 | 39.25482 | 28.30167 | 33146 ft | 504 kts | 160° |
| 2026-05-07 16:51 | 39.18935 | 28.33424 | 33162 ft | 503 kts | 160° |
| 2026-05-07 16:52 | 39.12390 | 28.36671 | 33160 ft | 504 kts | 160° |
| 2026-05-07 16:52 | 39.05847 | 28.39907 | 33161 ft | 504 kts | 160° |
| 2026-05-07 16:53 | 38.99294 | 28.43141 | 33162 ft | 504 kts | 161° |
| 2026-05-07 16:53 | 38.92744 | 28.46369 | 33164 ft | 504 kts | 161° |
| 2026-05-07 16:54 | 38.87286 | 28.49056 | 33156 ft | 505 kts | 161° |
| 2026-05-07 16:54 | 38.80725 | 28.52279 | 33166 ft | 504 kts | 161° |
| 2026-05-07 16:55 | 38.74168 | 28.55487 | 33163 ft | 504 kts | 161° |
| 2026-05-07 16:55 | 38.67597 | 28.58703 | 33169 ft | 505 kts | 161° |
| 2026-05-07 16:56 | 38.61076 | 28.61886 | 33163 ft | 505 kts | 161° |
| 2026-05-07 16:56 | 38.52025 | 28.68753 | 33168 ft | 507 kts | 144° |
| 2026-05-07 16:57 | 38.46274 | 28.73987 | 33169 ft | 508 kts | 145° |
| 2026-05-07 16:57 | 38.40492 | 28.79172 | 33169 ft | 508 kts | 145° |
| 2026-05-07 16:58 | 38.34854 | 28.84699 | 33167 ft | 509 kts | 134° |
| 2026-05-07 16:58 | 38.30035 | 28.91215 | 33182 ft | 508 kts | 131° |
| 2026-05-07 16:59 | 38.25177 | 28.97759 | 33180 ft | 508 kts | 133° |
| 2026-05-07 16:59 | 38.20263 | 29.04270 | 33181 ft | 508 kts | 133° |
| 2026-05-07 17:00 | 38.15354 | 29.10748 | 33180 ft | 507 kts | 133° |
| 2026-05-07 17:00 | 38.10492 | 29.17165 | 33198 ft | 507 kts | 133° |
| 2026-05-07 17:01 | 38.05600 | 29.23602 | 33198 ft | 507 kts | 133° |
| 2026-05-07 17:01 | 38.00705 | 29.30032 | 33197 ft | 506 kts | 133° |
| 2026-05-07 17:02 | 37.95805 | 29.36455 | 33194 ft | 506 kts | 133° |
| 2026-05-07 17:02 | 37.90914 | 29.42858 | 33198 ft | 505 kts | 133° |
| 2026-05-07 17:03 | 37.86020 | 29.49245 | 33210 ft | 504 kts | 133° |
| 2026-05-07 17:03 | 37.81139 | 29.55608 | 33199 ft | 504 kts | 133° |
| 2026-05-07 17:04 | 37.76246 | 29.61968 | 33201 ft | 504 kts | 134° |
| 2026-05-07 17:04 | 37.71366 | 29.68300 | 33203 ft | 503 kts | 134° |
| 2026-05-07 17:05 | 37.66487 | 29.74620 | 33197 ft | 502 kts | 134° |
| 2026-05-07 17:05 | 37.61639 | 29.80886 | 33204 ft | 501 kts | 134° |
| 2026-05-07 17:06 | 37.56763 | 29.87174 | 33202 ft | 500 kts | 134° |
| 2026-05-07 17:06 | 37.51904 | 29.93430 | 33194 ft | 500 kts | 134° |
| 2026-05-07 17:07 | 37.47035 | 29.99688 | 33185 ft | 498 kts | 134° |
| 2026-05-07 17:07 | 37.42182 | 30.05910 | 33191 ft | 498 kts | 134° |
| 2026-05-07 17:08 | 37.37329 | 30.12117 | 33193 ft | 497 kts | 134° |
| 2026-05-07 17:08 | 37.32492 | 30.18299 | 33189 ft | 496 kts | 134° |
| 2026-05-07 17:09 | 37.27647 | 30.24476 | 33177 ft | 496 kts | 134° |
| 2026-05-07 17:09 | 37.22807 | 30.30634 | 33173 ft | 495 kts | 135° |
| 2026-05-07 17:10 | 37.17974 | 30.36771 | 33168 ft | 494 kts | 135° |
| 2026-05-07 17:10 | 37.13161 | 30.42868 | 33163 ft | 494 kts | 135° |
| 2026-05-07 17:11 | 37.08319 | 30.48993 | 33147 ft | 494 kts | 135° |
| 2026-05-07 17:11 | 37.03468 | 30.55117 | 33145 ft | 494 kts | 135° |
| 2026-05-07 17:12 | 36.98619 | 30.61228 | 33125 ft | 494 kts | 135° |
| 2026-05-07 17:12 | 36.93764 | 30.67333 | 33115 ft | 495 kts | 135° |
| 2026-05-07 17:13 | 36.88906 | 30.73432 | 33108 ft | 495 kts | 135° |
| 2026-05-07 17:13 | 36.84073 | 30.79489 | 33105 ft | 495 kts | 135° |
| 2026-05-07 17:14 | 36.79206 | 30.85575 | 33113 ft | 496 kts | 135° |
| 2026-05-07 17:14 | 36.74612 | 30.92013 | 33115 ft | 496 kts | 131° |
| 2026-05-07 17:15 | 36.69874 | 30.98300 | 33118 ft | 497 kts | 135° |
| 2026-05-07 17:15 | 36.64985 | 31.04377 | 33114 ft | 497 kts | 136° |
| 2026-05-07 17:16 | 36.59784 | 31.10054 | 33120 ft | 497 kts | 139° |
| 2026-05-07 17:16 | 36.54785 | 31.15907 | 33121 ft | 497 kts | 136° |
| 2026-05-07 17:17 | 36.49882 | 31.21974 | 33118 ft | 497 kts | 135° |
| 2026-05-07 17:17 | 36.44974 | 31.28043 | 33126 ft | 497 kts | 135° |
| 2026-05-07 17:18 | 36.40064 | 31.34090 | 33126 ft | 497 kts | 135° |
| 2026-05-07 17:18 | 36.35146 | 31.40135 | 33128 ft | 497 kts | 135° |
| 2026-05-07 17:19 | 36.30229 | 31.46168 | 33130 ft | 497 kts | 136° |
| 2026-05-07 17:19 | 36.25314 | 31.52186 | 33130 ft | 497 kts | 136° |
| 2026-05-07 17:20 | 36.20412 | 31.58178 | 33132 ft | 497 kts | 136° |
| 2026-05-07 17:20 | 36.15454 | 31.64228 | 33136 ft | 497 kts | 136° |
| 2026-05-07 17:21 | 36.10567 | 31.70179 | 33136 ft | 497 kts | 136° |
| 2026-05-07 17:21 | 36.05633 | 31.76176 | 33136 ft | 497 kts | 136° |
| 2026-05-07 17:22 | 36.00696 | 31.82170 | 33138 ft | 497 kts | 136° |
| 2026-05-07 17:22 | 35.95767 | 31.88151 | 33140 ft | 497 kts | 136° |
| 2026-05-07 17:23 | 35.90820 | 31.94135 | 33133 ft | 497 kts | 136° |
| 2026-05-07 17:23 | 35.85897 | 32.00075 | 33135 ft | 497 kts | 136° |
| 2026-05-07 17:24 | 35.80946 | 32.06038 | 33146 ft | 498 kts | 136° |
| 2026-05-07 17:24 | 35.75990 | 32.11997 | 32898 ft | 496 kts | 136° |
| 2026-05-07 17:25 | 35.73512 | 32.14971 | 32536 ft | 497 kts | 136° |
| 2026-05-07 17:25 | 35.71035 | 32.17943 | 32255 ft | 498 kts | 136° |
| 2026-05-07 17:25 | 35.68547 | 32.20924 | 31984 ft | 499 kts | 136° |
| 2026-05-07 17:25 | 35.66064 | 32.23897 | 31728 ft | 499 kts | 136° |
| 2026-05-07 17:26 | 35.63565 | 32.26887 | 31477 ft | 500 kts | 136° |
| 2026-05-07 17:26 | 35.61074 | 32.29865 | 30908 ft | 499 kts | 136° |
| 2026-05-07 17:26 | 35.58589 | 32.32838 | 30102 ft | 498 kts | 136° |
| 2026-05-07 17:26 | 35.56106 | 32.35795 | 29082 ft | 499 kts | 136° |
| 2026-05-07 17:27 | 35.53603 | 32.38773 | 28026 ft | 501 kts | 136° |
| 2026-05-07 17:27 | 35.51107 | 32.41742 | 26646 ft | 509 kts | 136° |
| 2026-05-07 17:27 | 35.48553 | 32.44780 | 25516 ft | 511 kts | 136° |
| 2026-05-07 17:27 | 35.46010 | 32.47805 | 24594 ft | 508 kts | 136° |
| 2026-05-07 17:28 | 35.43482 | 32.50808 | 23815 ft | 505 kts | 136° |
| 2026-05-07 17:28 | 35.40957 | 32.53803 | 22922 ft | 502 kts | 136° |
| 2026-05-07 17:28 | 35.38465 | 32.56754 | 22185 ft | 496 kts | 136° |
| 2026-05-07 17:28 | 35.35994 | 32.59680 | 21577 ft | 489 kts | 136° |
| 2026-05-07 17:29 | 35.33564 | 32.62555 | 20926 ft | 483 kts | 136° |
| 2026-05-07 17:29 | 35.31163 | 32.65394 | 20183 ft | 479 kts | 136° |
| 2026-05-07 17:29 | 35.28837 | 32.68286 | 19292 ft | 474 kts | 129° |
| 2026-05-07 17:29 | 35.27084 | 32.71651 | 18136 ft | 464 kts | 114° |
| 2026-05-07 17:30 | 35.25875 | 32.75268 | 16868 ft | 455 kts | 110° |
| 2026-05-07 17:30 | 35.24767 | 32.78853 | 15634 ft | 447 kts | 110° |
| 2026-05-07 17:30 | 35.23638 | 32.82374 | 14665 ft | 439 kts | 113° |
| 2026-05-07 17:30 | 35.22109 | 32.85543 | 13678 ft | 430 kts | 127° |
| 2026-05-07 17:31 | 35.20189 | 32.88323 | 12569 ft | 424 kts | 131° |
| 2026-05-07 17:31 | 35.18259 | 32.91019 | 11501 ft | 419 kts | 130° |
| 2026-05-07 17:31 | 35.16353 | 32.93676 | 10442 ft | 415 kts | 130° |
| 2026-05-07 17:31 | 35.14473 | 32.96292 | 9427 ft | 413 kts | 130° |
| 2026-05-07 17:32 | 35.12657 | 32.98833 | 9489 ft | 375 kts | 130° |
| 2026-05-07 17:32 | 35.11033 | 33.01112 | 9807 ft | 340 kts | 130° |
| 2026-05-07 17:32 | 35.09547 | 33.03206 | 10093 ft | 311 kts | 130° |
| 2026-05-07 17:32 | 35.08642 | 33.04525 | 10193 ft | 303 kts | 127° |
| 2026-05-07 17:33 | 35.06911 | 33.07200 | 10126 ft | 299 kts | 128° |
| 2026-05-07 17:33 | 35.05588 | 33.09168 | 10056 ft | 299 kts | 129° |
| 2026-05-07 17:33 | 35.04244 | 33.11108 | 10028 ft | 300 kts | 129° |
| 2026-05-07 17:33 | 35.02848 | 33.12971 | 10007 ft | 299 kts | 133° |
| 2026-05-07 17:34 | 35.01443 | 33.14857 | 9999 ft | 299 kts | 124° |
| 2026-05-07 17:34 | 35.00485 | 33.17083 | 10012 ft | 297 kts | 110° |
| 2026-05-07 17:34 | 34.99789 | 33.19413 | 9964 ft | 294 kts | 108° |
| 2026-05-07 17:34 | 34.99117 | 33.21784 | 9394 ft | 297 kts | 107° |
| 2026-05-07 17:35 | 34.98443 | 33.24150 | 9007 ft | 293 kts | 107° |
| 2026-05-07 17:35 | 34.97775 | 33.26477 | 8586 ft | 291 kts | 107° |
| 2026-05-07 17:35 | 34.97105 | 33.28802 | 8173 ft | 288 kts | 107° |
| 2026-05-07 17:35 | 34.96443 | 33.31094 | 7765 ft | 285 kts | 107° |
| 2026-05-07 17:36 | 34.95785 | 33.33360 | 7362 ft | 283 kts | 107° |
| 2026-05-07 17:36 | 34.95130 | 33.35616 | 6976 ft | 280 kts | 107° |
| 2026-05-07 17:36 | 34.94482 | 33.37845 | 6586 ft | 278 kts | 107° |
| 2026-05-07 17:36 | 34.93841 | 33.40051 | 6164 ft | 277 kts | 107° |
| 2026-05-07 17:37 | 34.93199 | 33.42254 | 5716 ft | 276 kts | 107° |
| 2026-05-07 17:37 | 34.92558 | 33.44455 | 5330 ft | 273 kts | 107° |
| 2026-05-07 17:37 | 34.91926 | 33.46623 | 4928 ft | 270 kts | 107° |
| 2026-05-07 17:37 | 34.91303 | 33.48772 | 4513 ft | 267 kts | 107° |
| 2026-05-07 17:38 | 34.90698 | 33.50873 | 4188 ft | 258 kts | 107° |
| 2026-05-07 17:38 | 34.90116 | 33.52891 | 3910 ft | 245 kts | 107° |
| 2026-05-07 17:38 | 34.89572 | 33.54784 | 3640 ft | 234 kts | 107° |
| 2026-05-07 17:38 | 34.89045 | 33.56599 | 3405 ft | 223 kts | 107° |
| 2026-05-07 17:39 | 34.88529 | 33.58380 | 3013 ft | 223 kts | 107° |
| 2026-05-07 17:39 | 34.88019 | 33.60155 | 2594 ft | 217 kts | 107° |
| 2026-05-07 17:39 | 34.87537 | 33.61855 | 2213 ft | 208 kts | 107° |
| 2026-05-07 17:39 | 34.87160 | 33.63494 | 1902 ft | 195 kts | 100° |
| 2026-05-07 17:40 | 34.86985 | 33.64553 | 1640 ft | 190 kts | 99° |
| 2026-05-07 17:40 | 34.86811 | 33.66065 | 1500 ft | 168 kts | 94° |
| 2026-05-07 17:40 | 34.86799 | 33.67351 | 1461 ft | 145 kts | 85° |
| 2026-05-07 17:40 | 34.86843 | 33.68577 | 1467 ft | 145 kts | 85° |
| 2026-05-07 17:41 | 34.86921 | 33.69795 | 1476 ft | 144 kts | 82° |
| 2026-05-07 17:41 | 34.87082 | 33.70989 | 1482 ft | 142 kts | 74° |
| 2026-05-07 17:41 | 34.87446 | 33.72089 | 1489 ft | 140 kts | 57° |
| 2026-05-07 17:41 | 34.88058 | 33.72992 | 1493 ft | 137 kts | 40° |
| 2026-05-07 17:42 | 34.88748 | 33.73797 | 1490 ft | 136 kts | 27° |
| 2026-05-07 17:42 | 34.89650 | 33.73797 | 1469 ft | 136 kts | 331° |
| 2026-05-07 17:42 | 34.90234 | 33.72904 | 1502 ft | 137 kts | 300° |
| 2026-05-07 17:42 | 34.90800 | 33.72022 | 1491 ft | 135 kts | 330° |
| 2026-05-07 17:43 | 34.91678 | 33.71620 | 1527 ft | 134 kts | 341° |
| 2026-05-07 17:43 | 34.92501 | 33.71096 | 1581 ft | 136 kts | 321° |
| 2026-05-07 17:43 | 34.92960 | 33.70105 | 1532 ft | 139 kts | 278° |
| 2026-05-07 17:43 | 34.92568 | 33.69037 | 1162 ft | 143 kts | 234° |
| 2026-05-07 17:44 | 34.91927 | 33.68131 | 1197 ft | 142 kts | 228° |
| 2026-05-07 17:44 | 34.91240 | 33.67267 | 1139 ft | 142 kts | 227° |
| 2026-05-07 17:44 | 34.90564 | 33.66400 | 997 ft | 141 kts | 230° |
| 2026-05-07 17:44 | 34.89917 | 33.65523 | 735 ft | 138 kts | 230° |
| 2026-05-07 17:45 | 34.89254 | 33.64687 | 477 ft | 136 kts | 227° |
| 2026-05-07 17:45 | 34.88590 | 33.63876 | 195 ft | 135 kts | 226° |
| 2026-05-07 17:45 | 34.87932 | 33.63072 | 29 ft | 130 kts | 227° |
| 2026-05-07 17:45 | 34.87349 | 33.62359 | 25 ft | 98 kts | 225° |
| 2026-05-07 17:46 | 34.86959 | 33.61887 | 25 ft | 66 kts | 225° |
| 2026-05-07 17:46 | 34.86670 | 33.61533 | 25 ft | 40 kts | 225° |
| 2026-05-07 17:46 | 34.86557 | 33.61374 | 25 ft | 24 kts | 244° |
| 2026-05-07 17:46 | 34.86496 | 33.61198 | 25 ft | 21 kts | 257° |
| 2026-05-07 17:47 | 34.86484 | 33.61071 | 25 ft | 11 kts | 307° |
| 2026-05-07 17:47 | 34.86557 | 33.61041 | 25 ft | 13 kts | 33° |
| 2026-05-07 17:47 | 34.86642 | 33.61076 | 24 ft | 15 kts | 328° |
| 2026-05-07 17:47 | 34.86695 | 33.61011 | 24 ft | 7 kts | 316° |
| 2026-05-07 17:48 | 34.86718 | 33.60983 | 24 ft | 4 kts | 316° |
| 2026-05-07 17:48 | 34.86749 | 33.60980 | 24 ft | 3 kts | 40° |
| 2026-05-07 17:48 | 34.86768 | 33.61009 | 24 ft | 5 kts | 52° |
| 2026-05-07 17:48 | 34.86787 | 33.61036 | 24 ft | 3 kts | 49° |
| 2026-05-07 17:49 | 34.86790 | 33.61040 | 24 ft | 1 kts | 49° |
| 2026-05-07 17:49 | 34.86790 | 33.61041 | 24 ft | 0 kts | 49° |